createdAt,value
2018-08-04T00:04:42.276Z,101210.33
2018-08-04T00:09:36.783Z,101204.03
2018-08-04T00:14:31.290Z,101209.79
2018-08-04T00:19:25.835Z,101202.54
2018-08-04T00:24:20.542Z,101201.73
2018-08-04T00:29:15.292Z,101189.39
2018-08-04T00:34:10.142Z,101196.75
2018-08-04T00:39:06.163Z,101199.01
2018-08-04T00:44:01.168Z,101187.97
2018-08-04T00:48:55.734Z,101189.65
2018-08-04T00:53:50.279Z,101197.30
2018-08-04T00:58:44.776Z,101200.20
2018-08-04T01:03:39.622Z,101205.63
2018-08-04T01:08:34.130Z,101197.84
2018-08-04T01:13:28.913Z,101201.97
2018-08-04T01:18:23.923Z,101215.56
2018-08-04T01:23:18.416Z,101219.86
2018-08-04T01:28:13.120Z,101210.90
2018-08-04T01:33:07.597Z,101201.00
2018-08-04T01:38:02.263Z,101207.16
2018-08-04T01:42:56.774Z,101204.62
2018-08-04T01:47:51.295Z,101209.78
2018-08-04T01:52:45.772Z,101216.11
2018-08-04T01:57:40.393Z,101208.33
2018-08-04T02:02:34.912Z,101208.65
2018-08-04T02:07:29.709Z,101210.33
2018-08-04T02:12:24.211Z,101207.61
2018-08-04T02:17:18.722Z,101213.58
2018-08-04T02:22:13.242Z,101198.33
2018-08-04T02:27:07.931Z,101190.40
2018-08-04T02:32:02.675Z,101188.19
2018-08-04T02:36:57.661Z,101187.91
2018-08-04T02:41:52.194Z,101183.88
2018-08-04T02:46:47.041Z,101199.70
2018-08-04T02:51:41.840Z,101188.05
2018-08-04T02:56:36.489Z,101188.93
2018-08-04T03:01:31.005Z,101185.41
2018-08-04T03:06:25.765Z,101192.20
2018-08-04T03:11:20.575Z,101188.28
2018-08-04T03:16:15.225Z,101185.41
2018-08-04T03:21:09.714Z,101183.02
2018-08-04T03:26:04.465Z,101175.06
2018-08-04T03:30:58.961Z,101170.84
2018-08-04T03:35:53.638Z,101182.37
2018-08-04T03:40:48.177Z,101184.89
2018-08-04T03:45:43.152Z,101181.05
2018-08-04T03:50:37.722Z,101193.89
2018-08-04T03:55:32.416Z,101191.71
2018-08-04T04:00:27.140Z,101188.83
2018-08-04T04:05:21.698Z,101192.38
2018-08-04T04:10:16.220Z,101198.47
2018-08-04T04:15:10.716Z,101201.17
2018-08-04T04:20:06.380Z,101218.63
2018-08-04T04:25:00.866Z,101217.61
2018-08-04T04:29:55.431Z,101215.23
2018-08-04T04:34:49.940Z,101216.42
2018-08-04T04:39:44.728Z,101221.82
2018-08-04T04:44:39.236Z,101221.70
2018-08-04T04:49:33.738Z,101237.77
2018-08-04T04:54:28.432Z,101228.77
2018-08-04T04:59:22.944Z,101228.84
2018-08-04T05:04:17.458Z,101226.55
2018-08-04T05:09:12.319Z,101227.89
2018-08-04T05:14:07.087Z,101223.80
2018-08-04T05:19:01.794Z,101231.45
2018-08-04T05:23:56.279Z,101241.34
2018-08-04T05:28:50.916Z,101245.02
2018-08-04T05:33:45.427Z,101248.41
2018-08-04T05:38:39.909Z,101249.59
2018-08-04T05:43:34.550Z,101262.38
2018-08-04T05:48:29.422Z,101259.74
2018-08-04T05:53:24.292Z,101260.85
2018-08-04T05:58:19.080Z,101264.75
2018-08-04T06:03:13.967Z,101262.44
2018-08-04T06:08:08.891Z,101258.00
2018-08-04T06:13:03.850Z,101266.44
2018-08-04T06:17:58.602Z,101274.52
2018-08-04T06:22:53.347Z,101275.99
2018-08-04T06:27:48.199Z,101273.81
2018-08-04T06:32:43.611Z,101283.67
2018-08-04T06:37:38.374Z,101298.33
2018-08-04T06:42:33.251Z,101297.34
2018-08-04T06:47:27.995Z,101292.94
2018-08-04T06:52:22.891Z,101293.59
2018-08-04T06:57:17.717Z,101298.45
2018-08-04T07:02:12.452Z,101284.92
2018-08-04T07:07:08.178Z,101296.20
2018-08-04T07:12:02.978Z,101298.63
2018-08-04T07:16:57.759Z,101294.17
2018-08-04T07:21:52.731Z,101300.26
2018-08-04T07:26:47.471Z,101300.02
2018-08-04T07:31:42.491Z,101303.80
2018-08-04T07:36:37.232Z,101302.25
2018-08-04T07:41:32.037Z,101298.59
2018-08-04T07:46:26.964Z,101301.14
2018-08-04T07:51:21.795Z,101304.33
2018-08-04T07:56:16.537Z,101302.78
2018-08-04T08:01:11.294Z,101307.09
2018-08-04T08:06:06.578Z,101303.67
2018-08-04T08:11:01.766Z,101305.23
2018-08-04T08:15:56.635Z,101306.64
2018-08-04T08:20:51.365Z,101312.73
2018-08-04T08:26:10.216Z,101317.80
2018-08-04T08:31:05.674Z,101319.69
2018-08-04T08:36:00.808Z,101322.55
2018-08-04T08:40:55.609Z,101320.55
2018-08-04T08:45:50.665Z,101321.77
2018-08-04T08:50:45.588Z,101334.38
2018-08-04T08:55:40.556Z,101326.41
2018-08-04T09:00:35.320Z,101326.19
2018-08-04T09:05:30.073Z,101323.94
2018-08-04T09:10:25.070Z,101323.80
2018-08-04T09:15:19.866Z,101327.38
2018-08-04T09:20:14.977Z,101333.95
2018-08-04T09:25:10.126Z,101329.03
2018-08-04T09:30:07.483Z,101312.99
2018-08-04T09:35:02.194Z,101317.97
2018-08-04T09:39:57.013Z,101315.25
2018-08-04T09:44:51.914Z,101309.94
2018-08-04T09:49:47.011Z,101298.59
2018-08-04T09:54:41.740Z,101302.24
2018-08-04T09:59:36.690Z,101286.86
2018-08-04T10:04:31.857Z,101281.11
2018-08-04T10:09:26.855Z,101275.37
2018-08-04T10:14:21.636Z,101273.01
2018-08-04T10:19:16.433Z,101279.95
2018-08-04T10:24:11.347Z,101285.16
2018-08-04T10:29:06.407Z,101275.22
2018-08-04T10:34:01.162Z,101277.84
2018-08-04T10:38:56.110Z,101282.16
2018-08-04T10:43:50.874Z,101277.89
2018-08-04T10:48:45.921Z,101290.48
2018-08-04T10:53:40.903Z,101284.92
2018-08-04T10:58:35.716Z,101287.33
2018-08-04T11:03:30.470Z,101287.12
2018-08-04T11:08:25.632Z,101280.47
2018-08-04T11:13:20.387Z,101282.77
2018-08-04T11:18:15.233Z,101276.88
2018-08-04T11:23:10.289Z,101276.50
2018-08-04T11:28:06.134Z,101272.80
2018-08-04T11:33:01.355Z,101269.54
2018-08-04T11:37:56.128Z,101270.33
2018-08-04T11:42:50.841Z,101272.14
2018-08-04T11:47:45.657Z,101270.63
2018-08-04T11:52:40.393Z,101254.17
2018-08-04T11:57:35.320Z,101254.09
2018-08-04T12:02:30.318Z,101259.39
2018-08-04T12:07:25.233Z,101251.85
2018-08-04T12:12:20.024Z,101254.09
2018-08-04T12:17:14.854Z,101253.86
2018-08-04T12:22:09.700Z,101243.39
2018-08-04T12:27:04.807Z,101243.70
2018-08-04T12:31:59.752Z,101246.21
2018-08-04T12:36:54.567Z,101241.63
2018-08-04T12:41:49.515Z,101228.81
2018-08-04T12:46:44.678Z,101232.41
2018-08-04T12:51:40.092Z,101232.82
2018-08-04T12:56:35.148Z,101219.66
2018-08-04T13:01:29.881Z,101224.24
2018-08-04T13:06:24.997Z,101213.89
2018-08-04T13:11:19.767Z,101206.02
2018-08-04T13:16:14.555Z,101208.63
2018-08-04T13:21:09.307Z,101212.97
2018-08-04T13:26:04.068Z,101203.70
2018-08-04T13:30:58.888Z,101203.21
2018-08-04T13:35:53.697Z,101206.92
2018-08-04T13:40:48.442Z,101207.31
2018-08-04T13:45:43.330Z,101204.09
2018-08-04T13:50:38.143Z,101207.16
2018-08-04T13:55:32.908Z,101203.97
2018-08-04T14:00:27.897Z,101207.13
2018-08-04T14:05:22.636Z,101207.94
2018-08-04T14:10:17.730Z,101202.14
2018-08-04T14:15:12.503Z,101210.28
2018-08-04T14:20:07.675Z,101206.70
2018-08-04T14:25:02.447Z,101195.56
2018-08-04T14:29:57.243Z,101201.51
2018-08-04T14:34:52.195Z,101188.95
2018-08-04T14:39:47.251Z,101187.34
2018-08-04T14:44:41.978Z,101185.73
2018-08-04T14:49:36.829Z,101180.23
2018-08-04T14:54:31.924Z,101185.80
2018-08-04T14:59:27.176Z,101172.91
2018-08-04T15:04:21.949Z,101177.24
2018-08-04T15:09:16.725Z,101172.38
2018-08-04T15:14:11.843Z,101176.04
2018-08-04T15:19:06.774Z,101180.38
2018-08-04T15:24:01.897Z,101173.14
2018-08-04T15:28:56.686Z,101172.38
2018-08-04T15:33:51.705Z,101173.13
2018-08-04T15:38:47.099Z,101174.79
2018-08-04T15:43:42.311Z,101166.78
2018-08-04T15:48:37.060Z,101176.95
2018-08-04T15:53:31.845Z,101171.61
2018-08-04T15:58:26.777Z,101176.02
2018-08-04T16:03:21.692Z,101169.39
2018-08-04T16:08:16.458Z,101168.19
2018-08-04T16:13:11.246Z,101173.00
2018-08-04T16:18:06.314Z,101164.14
2018-08-04T16:23:01.084Z,101170.32
2018-08-04T16:27:56.236Z,101168.87
2018-08-04T16:32:51.106Z,101174.52
2018-08-04T16:37:45.864Z,101172.23
2018-08-04T16:42:40.862Z,101172.06
2018-08-04T16:47:35.595Z,101171.55
2018-08-04T16:52:30.324Z,101181.65
2018-08-04T16:57:25.050Z,101178.44
2018-08-04T17:02:20.000Z,101179.16
2018-08-04T17:07:14.912Z,101180.09
2018-08-04T17:12:09.696Z,101180.58
2018-08-04T17:17:04.576Z,101183.83
2018-08-04T17:22:13.928Z,101192.66
2018-08-04T17:27:09.015Z,101193.95
2018-08-04T17:32:04.700Z,101193.91
2018-08-04T17:37:09.603Z,101191.42
2018-08-04T17:42:04.340Z,101196.41
2018-08-04T17:47:10.120Z,101202.63
2018-08-04T17:52:05.103Z,101211.81
2018-08-04T17:57:14.680Z,101212.35
2018-08-04T18:02:09.550Z,101216.41
2018-08-04T18:07:04.303Z,101221.55
2018-08-04T18:11:59.083Z,101228.05
2018-08-04T18:16:53.849Z,101222.44
2018-08-04T18:21:48.618Z,101228.80
2018-08-04T18:26:54.917Z,101234.52
2018-08-04T18:31:49.923Z,101237.12
2018-08-04T18:36:44.908Z,101251.05
2018-08-04T18:41:40.102Z,101251.78
2018-08-04T18:46:41.598Z,101256.64
2018-08-04T18:51:36.486Z,101265.55
2018-08-04T18:56:31.588Z,101270.58
2018-08-04T19:01:27.503Z,101278.70
2018-08-04T19:06:23.569Z,101276.52
2018-08-04T19:11:36.223Z,101290.87
2018-08-04T19:16:55.732Z,101291.19
2018-08-04T19:21:54.561Z,101302.73
2018-08-04T19:26:51.168Z,101301.37
2018-08-04T19:31:47.513Z,101315.20
2018-08-04T19:42:01.597Z,101336.50
2018-08-04T19:47:10.072Z,101339.47
2018-08-04T19:52:06.005Z,101348.25
2018-08-04T19:57:14.635Z,101351.95
2018-08-04T20:02:10.469Z,101361.57
2018-08-04T20:07:05.103Z,101365.53
2018-08-04T20:12:01.119Z,101363.55
2018-08-04T20:16:56.170Z,101376.54
2018-08-04T20:21:51.007Z,101379.33
2018-08-04T20:26:45.626Z,101386.70
2018-08-04T20:31:40.365Z,101390.98
2018-08-04T20:36:59.216Z,101392.18
2018-08-04T20:41:53.969Z,101396.80
2018-08-04T20:46:48.673Z,101404.47
2018-08-04T20:51:43.438Z,101407.05
2018-08-04T20:56:38.734Z,101406.02
2018-08-04T21:01:45.177Z,101411.30
2018-08-04T21:06:39.754Z,101415.02
2018-08-04T21:11:34.265Z,101416.70
2018-08-04T21:16:29.100Z,101416.39
2018-08-04T21:21:25.248Z,101424.67
2018-08-04T21:26:19.705Z,101419.43
2018-08-04T21:31:14.488Z,101425.17
2018-08-04T21:36:09.313Z,101423.47
2018-08-04T21:41:03.771Z,101427.02
2018-08-04T21:45:58.445Z,101426.81
2018-08-04T21:51:15.670Z,101433.75
2018-08-04T21:56:10.490Z,101437.11
2018-08-04T22:01:10.238Z,101439.12
2018-08-04T22:06:04.736Z,101451.98
2018-08-04T22:10:59.358Z,101456.20
2018-08-04T22:15:53.811Z,101461.27
2018-08-04T22:20:48.316Z,101467.17
2018-08-04T22:25:42.872Z,101459.70
2018-08-04T22:30:37.396Z,101462.37
2018-08-04T22:35:32.363Z,101462.28
2018-08-04T22:40:26.918Z,101456.33
2018-08-04T22:46:25.553Z,101460.39
2018-08-04T22:51:28.711Z,101464.03
2018-08-04T22:56:23.715Z,101468.19
2018-08-04T23:01:18.217Z,101479.19
2018-08-04T23:06:12.686Z,101478.58
2018-08-04T23:11:07.378Z,101476.19
2018-08-04T23:16:01.856Z,101478.36
2018-08-04T23:20:56.332Z,101487.69
2018-08-04T23:25:50.793Z,101485.68
2018-08-04T23:30:45.246Z,101488.22
2018-08-04T23:35:40.012Z,101500.02
2018-08-04T23:40:34.556Z,101506.72
2018-08-04T23:45:29.074Z,101513.03
2018-08-04T23:50:23.534Z,101503.75
2018-08-04T23:55:18.084Z,101509.06
